createdAt,value
2023-02-06T00:01:48.702Z,101557.67
2023-02-06T00:04:16.644Z,101558.55
2023-02-06T00:06:44.916Z,101558.20
2023-02-06T00:09:13.370Z,101557.51
2023-02-06T00:11:41.563Z,101559.92
2023-02-06T00:14:09.411Z,101563.20
2023-02-06T00:16:57.222Z,101560.27
2023-02-06T00:19:27.506Z,101559.05
2023-02-06T00:21:55.582Z,101556.80
2023-02-06T00:24:23.933Z,101557.32
2023-02-06T00:26:52.364Z,101556.29
2023-02-06T00:29:20.360Z,101558.37
2023-02-06T00:31:48.795Z,101560.08
2023-02-06T00:34:16.744Z,101560.27
2023-02-06T00:36:44.608Z,101559.91
2023-02-06T00:39:12.601Z,101555.92
2023-02-06T00:41:41.709Z,101554.36
2023-02-06T00:44:09.579Z,101552.65
2023-02-06T00:46:37.668Z,101549.18
2023-02-06T00:49:05.613Z,101550.55
2023-02-06T00:51:36.220Z,101548.11
2023-02-06T00:54:04.105Z,101549.15
2023-02-06T00:56:32.218Z,101554.34
2023-02-06T00:59:00.274Z,101553.31
2023-02-06T01:01:28.629Z,101550.89
2023-02-06T01:03:56.613Z,101551.76
2023-02-06T01:06:24.885Z,101552.46
2023-02-06T01:08:52.842Z,101553.50
2023-02-06T01:11:22.612Z,101549.67
2023-02-06T01:13:50.572Z,101548.46
2023-02-06T01:16:21.783Z,101550.52
2023-02-06T01:18:49.913Z,101549.13
2023-02-06T01:21:20.556Z,101552.41
2023-02-06T01:23:49.563Z,101553.45
2023-02-06T01:26:19.809Z,101553.80
2023-02-06T01:28:48.103Z,101551.55
2023-02-06T01:31:18.652Z,101553.30
2023-02-06T01:33:47.529Z,101551.23
2023-02-06T01:36:15.607Z,101546.23
2023-02-06T01:38:44.251Z,101545.53
2023-02-06T01:41:12.785Z,101547.44
2023-02-06T01:43:44.131Z,101555.23
2023-02-06T01:46:12.233Z,101554.70
2023-02-06T01:48:45.741Z,101552.96
2023-02-06T01:51:15.731Z,101552.61
2023-02-06T01:53:44.530Z,101553.65
2023-02-06T01:56:14.283Z,101557.29
2023-02-06T01:58:43.024Z,101561.96
2023-02-06T02:01:11.099Z,101565.27
2023-02-06T02:03:41.404Z,101565.27
2023-02-06T02:06:12.099Z,101569.80
2023-02-06T02:08:42.577Z,101569.29
2023-02-06T02:11:11.988Z,101572.73
2023-02-06T02:13:41.976Z,101572.73
2023-02-06T02:16:20.054Z,101577.59
2023-02-06T02:19:25.406Z,101576.02
2023-02-06T02:22:21.271Z,101580.00
2023-02-06T02:25:15.939Z,101578.79
2023-02-06T02:28:22.908Z,101582.42
2023-02-06T02:31:12.752Z,101585.72
2023-02-06T02:33:53.784Z,101585.55
2023-02-06T02:36:25.756Z,101586.44
2023-02-06T02:39:26.140Z,101591.81
2023-02-06T02:41:58.044Z,101591.99
2023-02-06T02:44:37.917Z,101591.30
2023-02-06T02:47:07.531Z,101596.50
2023-02-06T02:49:35.525Z,101600.30
2023-02-06T02:52:04.070Z,101601.84
2023-02-06T02:54:32.011Z,101602.70
2023-02-06T02:57:06.687Z,101602.20
2023-02-06T02:59:36.695Z,101601.35
2023-02-06T03:02:32.580Z,101604.81
2023-02-06T03:05:04.258Z,101608.61
2023-02-06T03:07:34.180Z,101611.73
2023-02-06T03:10:32.319Z,101618.14
2023-02-06T03:13:09.284Z,101614.51
2023-02-06T03:15:43.749Z,101614.33
2023-02-06T03:18:22.925Z,101613.98
2023-02-06T03:20:51.083Z,101615.72
2023-02-06T03:23:25.135Z,101614.34
2023-02-06T03:25:55.097Z,101615.69
2023-02-06T03:28:34.114Z,101615.87
2023-02-06T03:31:03.512Z,101613.29
2023-02-06T03:33:38.105Z,101618.31
2023-02-06T03:36:06.402Z,101622.48
2023-02-06T03:38:35.876Z,101623.85
2023-02-06T03:41:03.897Z,101620.39
2023-02-06T03:43:32.960Z,101622.98
2023-02-06T03:46:02.436Z,101624.36
2023-02-06T03:48:33.847Z,101625.23
2023-02-06T03:51:05.163Z,101624.89
2023-02-06T03:53:34.849Z,101626.63
2023-02-06T03:56:07.592Z,101629.22
2023-02-06T03:58:36.638Z,101628.70
2023-02-06T04:01:05.125Z,101627.84
2023-02-06T04:03:33.144Z,101631.30
2023-02-06T04:06:01.265Z,101635.80
2023-02-06T04:08:30.704Z,101632.84
2023-02-06T04:10:58.657Z,101630.59
2023-02-06T04:13:27.543Z,101630.41
2023-02-06T04:15:56.381Z,101628.34
2023-02-06T04:18:24.629Z,101631.28
2023-02-06T04:20:54.624Z,101639.08
2023-02-06T04:23:22.842Z,101644.45
2023-02-06T04:25:50.830Z,101646.88
2023-02-06T04:28:19.222Z,101649.30
2023-02-06T04:30:51.207Z,101652.77
2023-02-06T04:33:19.366Z,101652.08
2023-02-06T04:35:48.895Z,101655.20
2023-02-06T04:38:16.791Z,101652.77
2023-02-06T04:40:44.665Z,101654.84
2023-02-06T04:43:12.672Z,101656.40
2023-02-06T04:45:41.982Z,101657.61
2023-02-06T04:48:10.443Z,101658.30
2023-02-06T04:50:39.010Z,101659.86
2023-02-06T04:53:07.027Z,101658.48
2023-02-06T04:55:35.788Z,101661.77
2023-02-06T04:58:04.168Z,101660.73
2023-02-06T05:00:32.570Z,101660.38
2023-02-06T05:03:00.565Z,101664.20
2023-02-06T05:05:28.727Z,101661.77
2023-02-06T05:07:56.586Z,101664.02
2023-02-06T05:10:24.559Z,101659.69
2023-02-06T05:12:53.194Z,101660.56
2023-02-06T05:15:21.358Z,101661.60
2023-02-06T05:17:50.011Z,101662.81
2023-02-06T05:20:18.793Z,101665.23
2023-02-06T05:22:47.810Z,101664.19
2023-02-06T05:25:15.934Z,101665.58
2023-02-06T05:27:44.305Z,101668.52
2023-02-06T05:30:12.910Z,101669.39
2023-02-06T05:32:42.152Z,101671.81
2023-02-06T05:35:10.170Z,101670.60
2023-02-06T05:37:38.596Z,101673.20
2023-02-06T05:40:07.227Z,101674.41
2023-02-06T05:42:35.399Z,101677.51
2023-02-06T05:45:03.605Z,101678.02
2023-02-06T05:47:31.493Z,101677.52
2023-02-06T06:26:13.304Z,101678.21
2023-02-06T06:28:41.681Z,101676.30
2023-02-06T06:31:11.852Z,101681.33
2023-02-06T06:33:40.120Z,101682.55
2023-02-06T06:36:08.881Z,101686.54
2023-02-06T06:38:37.173Z,101685.69
2023-02-06T06:41:05.284Z,101690.35
2023-02-06T06:43:33.639Z,101694.33
2023-02-06T06:46:01.915Z,101692.58
2023-02-06T06:48:29.936Z,101695.53
2023-02-06T06:50:57.854Z,101694.64
2023-02-06T06:53:26.154Z,101696.33
2023-02-06T06:55:54.380Z,101700.13
2023-02-06T06:58:22.286Z,101701.49
2023-02-06T07:00:50.185Z,101701.80
2023-02-06T07:03:18.337Z,101700.39
2023-02-06T07:05:47.348Z,101706.08
2023-02-06T07:08:15.200Z,101704.30
2023-02-06T07:10:43.699Z,101705.45
2023-02-06T07:13:12.599Z,101709.04
2023-02-06T07:15:41.029Z,101714.35
2023-02-06T07:18:10.720Z,101712.69
2023-02-06T07:20:39.862Z,101713.45
2023-02-06T07:23:08.044Z,101707.27
2023-02-06T07:25:36.811Z,101706.98
2023-02-06T07:28:05.681Z,101709.34
2023-02-06T07:30:34.147Z,101713.78
2023-02-06T07:33:04.889Z,101720.31
2023-02-06T07:35:34.285Z,101718.69
2023-02-06T07:38:02.526Z,101717.77
2023-02-06T07:40:43.930Z,101721.38
2023-02-06T07:43:13.452Z,101720.50
2023-02-06T07:45:41.769Z,101720.66
2023-02-06T07:48:10.018Z,101726.38
2023-02-06T07:50:38.432Z,101728.45
2023-02-06T07:53:08.251Z,101724.41
2023-02-06T07:55:38.296Z,101724.49
2023-02-06T07:58:06.307Z,101726.80
2023-02-06T08:00:34.451Z,101723.51
2023-02-06T08:03:03.111Z,101722.98
2023-02-06T08:05:31.768Z,101724.67
2023-02-06T08:07:59.774Z,101724.45
2023-02-06T08:10:27.698Z,101722.81
2023-02-06T08:13:15.740Z,101717.50
2023-02-06T08:15:45.225Z,101721.61
2023-02-06T08:18:16.298Z,101720.02
2023-02-06T08:20:44.225Z,101721.36
2023-02-06T08:23:12.056Z,101726.73
2023-02-06T08:25:39.954Z,101731.95
2023-02-06T08:28:08.139Z,101731.87
2023-02-06T08:30:37.069Z,101732.36
2023-02-06T08:33:05.074Z,101731.81
2023-02-06T08:35:33.661Z,101731.21
2023-02-06T08:38:02.060Z,101731.45
2023-02-06T08:40:31.377Z,101735.75
2023-02-06T08:42:59.202Z,101738.47
2023-02-06T08:45:27.017Z,101743.55
2023-02-06T08:47:55.086Z,101740.62
2023-02-06T08:50:23.055Z,101742.60
2023-02-06T08:52:51.218Z,101745.79
2023-02-06T08:55:19.986Z,101743.52
2023-02-06T08:57:53.318Z,101742.48
2023-02-06T09:00:21.669Z,101743.25
2023-02-06T09:02:49.684Z,101746.77
2023-02-06T09:05:17.656Z,101746.30
2023-02-06T09:07:46.524Z,101747.27
2023-02-06T09:10:26.822Z,101747.37
2023-02-06T09:12:56.058Z,101746.65
2023-02-06T09:15:24.044Z,101744.73
2023-02-06T09:17:52.011Z,101750.88
2023-02-06T09:20:20.963Z,101750.40
2023-02-06T09:22:48.980Z,101749.41
2023-02-06T09:25:16.971Z,101750.35
2023-02-06T09:27:46.896Z,101751.05
2023-02-06T09:30:15.158Z,101753.13
2023-02-06T09:32:43.497Z,101752.69
2023-02-06T09:35:11.485Z,101750.98
2023-02-06T09:37:39.368Z,101749.64
2023-02-06T09:40:08.542Z,101746.45
2023-02-06T09:42:38.358Z,101748.33
2023-02-06T09:45:08.212Z,101744.31
2023-02-06T09:47:39.453Z,101743.77
2023-02-06T09:50:16.707Z,101743.21
2023-02-06T09:52:57.594Z,101738.75
2023-02-06T09:55:43.464Z,101735.02
2023-02-06T09:58:21.258Z,101732.16
2023-02-06T10:00:53.471Z,101734.70
2023-02-06T10:03:33.690Z,101732.14
2023-02-06T10:06:19.528Z,101733.30
2023-02-06T10:08:55.931Z,101731.98
2023-02-06T10:11:39.314Z,101730.50
2023-02-06T10:14:32.446Z,101728.34
2023-02-06T10:17:05.538Z,101730.91
2023-02-06T10:19:39.451Z,101730.47
2023-02-06T10:22:17.062Z,101728.77
2023-02-06T10:25:05.972Z,101727.93
2023-02-06T10:27:34.698Z,101725.36
2023-02-06T10:30:02.882Z,101727.24
2023-02-06T10:32:44.855Z,101732.72
2023-02-06T10:35:47.304Z,101730.23
2023-02-06T10:38:22.050Z,101730.17
2023-02-06T10:41:08.796Z,101730.80
2023-02-06T10:43:49.793Z,101729.89
2023-02-06T10:46:23.937Z,101725.06
2023-02-06T10:49:20.607Z,101726.03
2023-02-06T10:51:53.164Z,101725.23
2023-02-06T10:54:31.773Z,101723.02
2023-02-06T10:57:01.460Z,101720.77
2023-02-06T10:59:39.100Z,101713.65
2023-02-06T11:02:11.883Z,101713.80
2023-02-06T11:04:42.855Z,101713.27
2023-02-06T11:07:33.822Z,101716.33
2023-02-06T11:10:04.708Z,101713.16
2023-02-06T11:13:05.071Z,101715.10
2023-02-06T11:15:37.013Z,101714.32
2023-02-06T11:18:06.634Z,101714.47
2023-02-06T11:20:37.035Z,101717.80
2023-02-06T11:23:20.692Z,101716.63
2023-02-06T11:26:14.373Z,101721.15
2023-02-06T11:29:01.859Z,101721.88
2023-02-06T11:32:00.369Z,101723.11
2023-02-06T11:34:36.679Z,101724.45
2023-02-06T11:37:07.370Z,101720.65
2023-02-06T11:39:39.498Z,101717.14
2023-02-06T11:42:28.789Z,101716.11
2023-02-06T11:44:57.348Z,101718.59
2023-02-06T11:47:32.948Z,101717.53
2023-02-06T11:50:13.097Z,101718.81
2023-02-06T11:52:46.753Z,101712.04
2023-02-06T11:55:22.394Z,101713.42
2023-02-06T11:58:12.044Z,101712.23
2023-02-06T12:01:06.669Z,101712.37
2023-02-06T12:03:34.909Z,101706.93
2023-02-06T12:06:14.915Z,101710.45
2023-02-06T12:08:50.298Z,101708.54
2023-02-06T12:11:22.522Z,101706.26
2023-02-06T12:14:13.175Z,101707.50
2023-02-06T12:16:43.401Z,101706.55
2023-02-06T12:19:37.055Z,101700.86
2023-02-06T12:22:11.927Z,101698.80
2023-02-06T12:24:43.331Z,101698.13
2023-02-06T12:27:34.607Z,101702.81
2023-02-06T12:30:20.579Z,101701.25
2023-02-06T12:32:52.754Z,101704.98
2023-02-06T12:35:31.663Z,101702.78
2023-02-06T12:38:41.161Z,101708.17
2023-02-06T12:41:22.471Z,101706.46
2023-02-06T12:43:59.657Z,101709.00
2023-02-06T12:46:29.590Z,101706.65
2023-02-06T12:49:07.819Z,101705.48
2023-02-06T12:51:45.303Z,101701.41
2023-02-06T12:54:19.879Z,101695.80
2023-02-06T12:57:12.980Z,101696.52
2023-02-06T12:59:57.841Z,101697.22
2023-02-06T13:02:50.978Z,101693.20
2023-02-06T13:05:37.365Z,101691.80
2023-02-06T13:08:14.812Z,101694.55
2023-02-06T13:10:43.781Z,101691.87
2023-02-06T13:13:26.106Z,101685.70
2023-02-06T13:15:54.933Z,101690.80
2023-02-06T13:18:41.202Z,101685.45
2023-02-06T13:21:36.237Z,101685.31
2023-02-06T13:24:04.067Z,101682.40
2023-02-06T13:26:53.221Z,101682.77
2023-02-06T13:29:25.438Z,101687.48
2023-02-06T13:32:11.989Z,101690.14
2023-02-06T13:34:47.126Z,101686.02
2023-02-06T13:37:40.238Z,101692.17
2023-02-06T13:40:23.415Z,101696.62
2023-02-06T13:42:54.859Z,101698.46
2023-02-06T13:45:32.093Z,101698.91
2023-02-06T13:48:07.956Z,101694.81
2023-02-06T13:50:48.730Z,101696.80
2023-02-06T13:53:41.487Z,101698.62
2023-02-06T13:56:27.963Z,101700.08
2023-02-06T13:58:56.633Z,101700.31
2023-02-06T14:01:30.869Z,101703.11
2023-02-06T14:15:21.462Z,101702.42
2023-02-06T14:18:01.790Z,101706.88
2023-02-06T14:20:57.504Z,101711.33
2023-02-06T14:23:35.822Z,101716.13
2023-02-06T14:26:21.804Z,101717.80
2023-02-06T14:29:11.213Z,101714.92
2023-02-06T14:31:39.711Z,101716.06
2023-02-06T14:34:22.926Z,101720.81
2023-02-06T14:37:10.230Z,101730.23
2023-02-06T14:39:49.043Z,101733.94
2023-02-06T14:42:24.027Z,101736.95
2023-02-06T14:45:03.166Z,101743.38
2023-02-06T14:47:33.827Z,101749.13
2023-02-06T14:50:01.788Z,101751.06
2023-02-06T14:52:30.813Z,101755.08
2023-02-06T14:54:58.808Z,101756.67
2023-02-06T14:57:30.787Z,101757.36
2023-02-06T15:00:01.584Z,101754.24
2023-02-06T15:02:34.614Z,101755.13
2023-02-06T15:05:03.720Z,101756.19
2023-02-06T15:07:37.320Z,101758.10
2023-02-06T15:10:14.195Z,101764.69
2023-02-06T15:12:50.876Z,101765.54
2023-02-06T15:15:25.927Z,101764.67
2023-02-06T15:18:04.704Z,101769.18
2023-02-06T15:20:56.175Z,101770.05
2023-02-06T15:23:30.453Z,101775.24
2023-02-06T15:26:29.218Z,101783.04
2023-02-06T15:29:01.754Z,101785.95
2023-02-06T15:31:30.137Z,101788.54
2023-02-06T15:33:59.997Z,101789.05
2023-02-06T15:36:31.892Z,101794.41
2023-02-06T15:39:00.417Z,101798.57
2023-02-06T15:41:29.702Z,101806.00
2023-02-06T15:44:02.826Z,101805.98
2023-02-06T15:46:31.325Z,101811.48
2023-02-06T15:48:59.700Z,101809.55
2023-02-06T15:51:38.840Z,101810.94
2023-02-06T15:54:17.381Z,101809.19
2023-02-06T15:56:50.279Z,101803.46
2023-02-06T15:59:24.212Z,101799.64
2023-02-06T16:01:54.273Z,101798.41
2023-02-06T16:04:33.288Z,101796.67
2023-02-06T16:07:13.259Z,101799.60
2023-02-06T16:10:04.061Z,101804.45
2023-02-06T16:12:36.434Z,101799.92
2023-02-06T16:15:33.496Z,101802.02
2023-02-06T16:18:18.725Z,101798.23
2023-02-06T16:20:47.149Z,101794.80
2023-02-06T16:23:17.956Z,101795.84
2023-02-06T16:25:47.272Z,101795.67
2023-02-06T16:28:23.143Z,101799.84
2023-02-06T16:31:04.432Z,101792.92
2023-02-06T18:19:05.356Z,101791.22
2023-02-06T18:21:34.154Z,101791.50
2023-02-06T18:24:01.964Z,101797.36
2023-02-06T18:26:30.195Z,101794.44
2023-02-06T18:28:58.426Z,101795.48
2023-02-06T18:31:33.011Z,101801.17
2023-02-06T18:34:02.893Z,101797.89
2023-02-06T18:36:30.898Z,101802.02
2023-02-06T18:38:58.822Z,101800.95
2023-02-06T18:41:45.411Z,101803.69
2023-02-06T18:44:13.235Z,101800.41
2023-02-06T18:46:41.072Z,101803.85
2023-02-06T18:49:08.934Z,101809.90
2023-02-06T18:51:38.503Z,101812.35
2023-02-06T18:54:07.810Z,101812.58
2023-02-06T18:56:37.019Z,101808.50
2023-02-06T18:59:05.114Z,101806.48
2023-02-06T19:01:33.212Z,101812.08
2023-02-06T19:04:01.461Z,101807.85
2023-02-06T19:06:32.205Z,101807.89
2023-02-06T19:09:00.163Z,101807.05
2023-02-06T19:11:28.234Z,101813.95
2023-02-06T19:13:56.178Z,101812.73
2023-02-06T19:16:26.436Z,101814.29
2023-02-06T19:18:54.491Z,101812.89
2023-02-06T19:21:23.509Z,101809.25
2023-02-06T19:24:00.480Z,101806.14
2023-02-06T19:26:28.599Z,101805.02
2023-02-06T19:28:57.029Z,101807.40
2023-02-06T19:31:25.028Z,101809.25
2023-02-06T19:33:55.408Z,101808.52
2023-02-06T19:36:24.027Z,101803.64
2023-02-06T19:38:55.006Z,101809.14
2023-02-06T19:41:24.497Z,101805.52
2023-02-06T19:43:53.573Z,101807.10
2023-02-06T19:46:23.064Z,101804.38
2023-02-06T19:48:52.643Z,101803.73
2023-02-06T19:51:25.757Z,101802.54
2023-02-06T19:53:54.431Z,101797.50
2023-02-06T19:56:27.090Z,101793.63
2023-02-06T19:58:59.398Z,101792.65
2023-02-06T20:01:30.250Z,101793.72
2023-02-06T20:03:58.952Z,101798.23
2023-02-06T20:06:28.350Z,101797.44
2023-02-06T20:08:56.614Z,101799.09
2023-02-06T20:11:25.611Z,101800.10
2023-02-06T20:13:55.688Z,101798.37
2023-02-06T20:16:29.082Z,101792.71
2023-02-06T20:18:57.800Z,101795.88
2023-02-06T20:21:39.405Z,101800.11
2023-02-06T20:24:18.667Z,101792.48
2023-02-06T20:26:46.760Z,101792.30
2023-02-06T20:29:31.489Z,101794.13
2023-02-06T20:31:59.697Z,101791.13
2023-02-06T20:34:27.901Z,101791.54
2023-02-06T20:36:56.507Z,101791.61
2023-02-06T20:39:24.729Z,101787.16
2023-02-06T20:41:52.780Z,101785.46
2023-02-06T20:44:20.832Z,101787.02
2023-02-06T20:46:48.845Z,101786.34
2023-02-06T20:49:18.631Z,101784.99
2023-02-06T20:51:48.919Z,101782.06
2023-02-06T20:54:17.673Z,101778.11
2023-02-06T20:56:45.631Z,101785.03
2023-02-06T20:59:15.091Z,101777.99
2023-02-06T21:01:43.508Z,101778.72
2023-02-06T21:04:12.627Z,101782.73
2023-02-06T21:06:40.685Z,101779.82
2023-02-06T21:09:09.175Z,101785.35
2023-02-06T21:11:43.008Z,101787.59
2023-02-06T21:14:11.727Z,101788.77
2023-02-06T21:16:39.840Z,101785.99
2023-02-06T21:19:09.125Z,101785.10
2023-02-06T21:21:37.551Z,101781.80
2023-02-06T21:24:05.893Z,101784.53
2023-02-06T21:26:34.138Z,101784.67
2023-02-06T21:29:06.068Z,101782.58
2023-02-06T21:31:37.874Z,101781.69
2023-02-06T21:34:19.025Z,101778.92
2023-02-06T21:36:48.168Z,101774.60
2023-02-06T21:39:18.352Z,101771.52
2023-02-06T21:41:47.028Z,101775.36
2023-02-06T21:44:14.943Z,101772.13
2023-02-06T21:46:42.854Z,101769.75
2023-02-06T21:49:11.784Z,101770.98
2023-02-06T21:51:40.132Z,101763.41
2023-02-06T21:54:08.548Z,101762.38
2023-02-06T21:56:38.210Z,101758.75
2023-02-06T21:59:06.716Z,101751.66
2023-02-06T22:01:35.570Z,101751.98
2023-02-06T22:04:03.892Z,101750.59
2023-02-06T22:06:35.454Z,101751.95
2023-02-06T22:09:07.792Z,101745.39
2023-02-06T22:11:39.239Z,101746.95
2023-02-06T22:14:14.528Z,101750.23
2023-02-06T22:16:42.769Z,101749.57
2023-02-06T22:19:11.195Z,101742.70
2023-02-06T22:21:39.128Z,101747.21
2023-02-06T22:24:07.706Z,101748.29
2023-02-06T22:26:38.642Z,101742.79
2023-02-06T22:29:07.826Z,101741.23
2023-02-06T22:31:38.936Z,101735.19
2023-02-06T22:34:11.814Z,101729.84
2023-02-06T22:36:39.726Z,101726.53
2023-02-06T22:39:08.317Z,101722.53
2023-02-06T22:41:38.660Z,101716.80
2023-02-06T22:44:06.793Z,101721.07
2023-02-06T22:46:36.472Z,101720.00
2023-02-06T22:49:05.273Z,101718.23
2023-02-06T22:51:34.179Z,101720.30
2023-02-06T22:54:02.923Z,101720.29
2023-02-06T22:56:36.001Z,101717.89
2023-02-06T22:59:17.921Z,101722.23
2023-02-06T23:01:53.090Z,101725.03
2023-02-06T23:04:26.930Z,101727.83
2023-02-06T23:06:55.389Z,101725.42
2023-02-06T23:09:25.515Z,101724.77
2023-02-06T23:12:01.214Z,101724.42
2023-02-06T23:14:32.398Z,101727.36
2023-02-06T23:17:00.897Z,101724.23
2023-02-06T23:19:33.208Z,101721.48
2023-02-06T23:22:03.764Z,101716.80
2023-02-06T23:24:32.319Z,101710.38
2023-02-06T23:27:06.244Z,101706.05
2023-02-06T23:29:34.664Z,101705.88
2023-02-06T23:32:02.505Z,101707.42
2023-02-06T23:34:30.601Z,101709.68
2023-02-06T23:36:58.476Z,101708.16
2023-02-06T23:39:26.602Z,101701.80
2023-02-06T23:41:54.448Z,101703.23
2023-02-06T23:44:22.308Z,101706.88
2023-02-06T23:46:50.910Z,101707.25
2023-02-06T23:49:18.837Z,101706.77
2023-02-06T23:51:47.117Z,101708.00
2023-02-06T23:54:15.021Z,101705.06
2023-02-06T23:56:46.125Z,101702.77
2023-02-06T23:59:14.285Z,101702.41
